| time (UTC) | temp F | wind direction | speed MPH | gust MPH | rain 1hr in | rain 24hr in | rain mn in | humidity % | barometer mb |
| 20260508094543 | 57 | 344 | 3.0 | 9.0 | 0.00 | 0.00 | 0.00 | 33 | 1026.9 |
| 20260508093032 | 55 | 331 | 1.0 | 9.0 | 0.00 | 0.00 | 0.00 | 33 | 1026.9 |
| 20260508091544 | 56 | 337 | 4.0 | 11.0 | 0.00 | 0.00 | 0.00 | 36 | 1027.0 |
| 20260508090032 | 55 | 315 | 5.0 | 10.0 | 0.00 | 0.00 | 0.00 | 35 | 1027.0 |
| 20260508084524 | 55 | 10 | 4.0 | 9.0 | 0.00 | 0.00 | 0.00 | 37 | 1027.2 |
| 20260508083023 | 54 | 329 | 1.0 | 10.0 | 0.00 | 0.00 | 0.00 | 38 | 1027.0 |
| 20260508081531 | 53 | 325 | 2.0 | 6.0 | 0.00 | 0.00 | 0.00 | 39 | 1027.1 |
| 20260508080019 | 54 | 315 | 2.0 | 8.0 | 0.00 | 0.00 | 0.00 | 40 | 1027.0 |
| 20260508074517 | 52 | 313 | 1.0 | 10.0 | 0.00 | 0.00 | 0.00 | 41 | 1026.9 |
| 20260508073017 | 51 | 355 | 1.0 | 6.0 | 0.00 | 0.00 | 0.00 | 44 | 1026.8 |
| 20260508071519 | 50 | 306 | 2.0 | 5.0 | 0.00 | 0.00 | 0.00 | 46 | 1026.8 |
| 20260508070009 | 49 | 301 | 1.0 | 9.0 | 0.00 | 0.00 | 0.00 | 47 | 1026.7 |
| 20260508064507 | 48 | 312 | 2.0 | 8.0 | 0.00 | 0.00 | 0.00 | 48 | 1026.5 |
| 20260508063004 | 48 | 336 | 2.0 | 6.0 | 0.00 | 0.00 | 0.00 | 48 | 1026.5 |
| 20260508061600 | 46 | 320 | 2.0 | 5.0 | 0.00 | 0.00 | 0.00 | 54 | 1026.3 |
| 20260508060056 | 46 | 322 | 2.0 | 4.0 | 0.00 | 0.00 | 0.00 | 58 | 1026.1 |
| 20260508054602 | 43 | 326 | 1.0 | 4.0 | 0.00 | 0.00 | 0.00 | 64 | 1026.0 |
| 20260508053052 | 40 | 315 | 0.0 | 3.0 | 0.00 | 0.00 | 0.00 | 68 | 1025.9 |
| 20260508051545 | 38 | 325 | 2.0 | 4.0 | 0.00 | 0.00 | 0.00 | 71 | 1025.8 |
| 20260508050043 | 35 | 317 | 1.0 | 3.0 | 0.00 | 0.00 | 0.00 | 75 | 1025.6 |
| 20260508044535 | 33 | 321 | 2.0 | 4.0 | 0.00 | 0.00 | 0.00 | 80 | 1025.5 |
| 20260508043033 | 31 | 328 | 2.0 | 4.0 | 0.00 | 0.00 | 0.00 | 82 | 1025.5 |
| 20260508041530 | 29 | 315 | 1.0 | 3.0 | 0.00 | 0.00 | 0.00 | 84 | 1025.3 |
| 20260508040031 | 28 | 315 | 0.0 | 0.0 | 0.00 | 0.00 | 0.00 | 85 | 1025.1 |
| 20260508034535 | 27 | 315 | 0.0 | 0.0 | 0.00 | 0.00 | 0.00 | 87 | 1025.0 |
| 20260508033026 | 25 | 315 | 0.0 | 0.0 | 0.00 | 0.00 | 0.00 | 88 | 1024.8 |
| 20260508031525 | 24 | 315 | 0.0 | 0.0 | 0.00 | 0.00 | 0.00 | 88 | 1024.7 |
| 20260508030026 | 24 | 315 | 0.0 | 0.0 | 0.00 | 0.00 | 0.00 | 88 | 1024.6 |
| 20260508024526 | 24 | 315 | 0.0 | 0.0 | 0.00 | 0.00 | 0.00 | 88 | 1024.4 |
| 20260508023020 | 24 | 315 | 0.0 | 0.0 | 0.00 | 0.00 | 0.00 | 88 | 1024.2 |
| 20260508021519 | 24 | 315 | 0.0 | 0.0 | 0.00 | 0.00 | 0.00 | 88 | 1023.9 |
| 20260508020013 | 24 | 315 | 0.0 | 1.0 | 0.00 | 0.00 | 0.00 | 87 | 1023.8 |
| 20260508014511 | 25 | 315 | 0.0 | 1.0 | 0.00 | 0.00 | 0.00 | 87 | 1023.6 |
| 20260508013010 | 25 | 315 | 0.0 | 0.0 | 0.00 | 0.00 | 0.00 | 87 | 1023.6 |
| 20260508011512 | 25 | 315 | 0.0 | 1.0 | 0.00 | 0.00 | 0.00 | 86 | 1023.4 |
| 20260508010006 | 25 | 315 | 0.0 | 2.0 | 0.00 | 0.00 | 0.00 | 86 | 1023.3 |
| 20260508004503 | 25 | 315 | 1.0 | 4.0 | 0.00 | 0.00 | 0.00 | 86 | 1023.0 |
| 20260508003000 | 25 | 316 | 2.0 | 4.0 | 0.00 | 0.00 | 0.00 | 86 | 1022.8 |
| 20260508001604 | 26 | 315 | 3.0 | 4.0 | 0.00 | 0.00 | 0.00 | 85 | 1022.6 |
| 20260508000058 | 26 | 320 | 1.0 | 4.0 | 0.00 | 0.00 | 0.00 | 85 | 1022.5 |
| 20260507234555 | 27 | 312 | 1.0 | 4.0 | 0.00 | 0.00 | 0.00 | 84 | 1022.4 |
| 20260507233053 | 27 | 319 | 2.0 | 5.0 | 0.00 | 0.00 | 0.00 | 83 | 1022.2 |
| 20260507231552 | 27 | 319 | 2.0 | 4.0 | 0.00 | 0.00 | 0.00 | 83 | 1022.1 |
| 20260507230052 | 27 | 318 | 2.0 | 4.0 | 0.00 | 0.00 | 0.00 | 82 | 1021.9 |
| 20260507224547 | 28 | 318 | 0.0 | 1.0 | 0.00 | 0.00 | 0.00 | 82 | 1021.8 |
| 20260507223043 | 29 | 318 | 0.0 | 2.0 | 0.00 | 0.00 | 0.00 | 80 | 1021.6 |
| 20260507221540 | 29 | 318 | 0.0 | 1.0 | 0.00 | 0.00 | 0.00 | 80 | 1021.5 |
| 20260507220038 | 30 | 318 | 0.0 | 1.0 | 0.00 | 0.00 | 0.00 | 78 | 1021.3 |
| 20260507214539 | 30 | 318 | 0.0 | 1.0 | 0.00 | 0.00 | 0.00 | 76 | 1021.1 |
| 20260507213042 | 31 | 318 | 1.0 | 4.0 | 0.00 | 0.00 | 0.00 | 76 | 1020.8 |
| 20260507211543 | 31 | 317 | 3.0 | 5.0 | 0.00 | 0.00 | 0.00 | 74 | 1020.6 |
| 20260507210027 | 32 | 316 | 1.0 | 4.0 | 0.00 | 0.00 | 0.00 | 72 | 1020.5 |
| 20260507204525 | 32 | 313 | 2.0 | 4.0 | 0.00 | 0.00 | 0.00 | 71 | 1020.3 |
| 20260507203022 | 33 | 313 | 3.0 | 4.0 | 0.00 | 0.00 | 0.00 | 69 | 1020.0 |
| 20260507201533 | 35 | 320 | 1.0 | 4.0 | 0.00 | 0.00 | 0.00 | 66 | 1019.7 |
| 20260507200022 | 36 | 320 | 0.0 | 3.0 | 0.00 | 0.00 | 0.00 | 63 | 1019.5 |
| 20260507194518 | 38 | 317 | 1.0 | 4.0 | 0.00 | 0.00 | 0.00 | 60 | 1019.4 |
| 20260507193021 | 39 | 319 | 2.0 | 8.0 | 0.00 | 0.00 | 0.00 | 57 | 1019.2 |
| 20260507191522 | 40 | 317 | 3.0 | 8.0 | 0.00 | 0.00 | 0.00 | 56 | 1018.9 |
| 20260507190016 | 41 | 317 | 0.0 | 3.0 | 0.00 | 0.00 | 0.00 | 52 | 1018.8 |
| 20260507184512 | 43 | 321 | 1.0 | 4.0 | 0.00 | 0.00 | 0.00 | 50 | 1018.6 |
| 20260507183011 | 44 | 320 | 4.0 | 10.0 | 0.00 | 0.00 | 0.00 | 48 | 1018.6 |
| 20260507181509 | 45 | 319 | 1.0 | 5.0 | 0.00 | 0.00 | 0.00 | 45 | 1018.4 |
| 20260507180019 | 46 | 318 | 4.0 | 8.0 | 0.00 | 0.00 | 0.00 | 42 | 1018.1 |
| 20260507174513 | 47 | 317 | 3.0 | 9.0 | 0.00 | 0.00 | 0.00 | 40 | 1018.0 |
| 20260507173011 | 48 | 303 | 3.0 | 12.0 | 0.00 | 0.00 | 0.00 | 36 | 1017.8 |
| 20260507171504 | 49 | 302 | 5.0 | 15.0 | 0.00 | 0.00 | 0.00 | 36 | 1017.7 |
| 20260507170006 | 50 | 303 | 5.0 | 12.0 | 0.00 | 0.00 | 0.00 | 37 | 1017.5 |
| 20260507164501 | 50 | 316 | 6.0 | 14.0 | 0.00 | 0.00 | 0.00 | 36 | 1017.3 |
| 20260507163100 | 51 | 316 | 7.0 | 11.0 | 0.00 | 0.00 | 0.00 | 35 | 1017.1 |
| 20260507161604 | 51 | 313 | 8.0 | 13.0 | 0.00 | 0.00 | 0.00 | 33 | 1017.1 |
| 20260507160058 | 52 | 315 | 7.0 | 14.0 | 0.00 | 0.00 | 0.00 | 31 | 1016.9 |
| 20260507154556 | 53 | 317 | 6.0 | 15.0 | 0.00 | 0.00 | 0.00 | 30 | 1016.7 |
| 20260507153105 | 54 | 323 | 6.0 | 19.0 | 0.00 | 0.00 | 0.00 | 27 | 1016.6 |
| 20260507151554 | 55 | 317 | 6.0 | 14.0 | 0.00 | 0.00 | 0.00 | 28 | 1016.4 |
| 20260507150058 | 56 | 308 | 4.0 | 12.0 | 0.00 | 0.00 | 0.00 | 28 | 1016.4 |
| 20260507144553 | 56 | 319 | 4.0 | 9.0 | 0.00 | 0.00 | 0.00 | 28 | 1016.3 |
| 20260507143104 | 57 | 325 | 2.0 | 7.0 | 0.00 | 0.00 | 0.00 | 26 | 1016.2 |
| 20260507141552 | 57 | 266 | 2.0 | 5.0 | 0.00 | 0.00 | 0.00 | 24 | 1016.2 |
| 20260507140054 | 58 | 296 | 2.0 | 9.0 | 0.00 | 0.00 | 0.00 | 25 | 1016.2 |
| 20260507134552 | 57 | 325 | 0.0 | 10.0 | 0.00 | 0.00 | 0.00 | 23 | 1016.1 |
| 20260507133052 | 58 | 247 | 2.0 | 10.0 | 0.00 | 0.00 | 0.00 | 25 | 1016.0 |
| 20260507131552 | 58 | 290 | 1.0 | 4.0 | 0.00 | 0.00 | 0.00 | 22 | 1016.1 |
| 20260507124555 | 57 | 64 | 0.0 | 5.0 | 0.00 | 0.00 | 0.00 | 22 | 1016.1 |
| 20260507123048 | 57 | 311 | 2.0 | 8.0 | 0.00 | 0.00 | 0.00 | 22 | 1016.1 |
| 20260507121553 | 57 | 319 | 0.0 | 9.0 | 0.00 | 0.00 | 0.00 | 25 | 1016.1 |
| 20260507120047 | 57 | 333 | 2.0 | 9.0 | 0.00 | 0.00 | 0.00 | 27 | 1016.1 |
| 20260507114546 | 56 | 223 | 0.0 | 6.0 | 0.00 | 0.00 | 0.00 | 21 | 1016.1 |
| 20260507113049 | 55 | 277 | 0.0 | 9.0 | 0.00 | 0.00 | 0.00 | 21 | 1016.2 |
| 20260507111545 | 56 | 336 | 3.0 | 8.0 | 0.00 | 0.00 | 0.00 | 24 | 1016.2 |
| 20260507110056 | 55 | 313 | 0.0 | 9.0 | 0.00 | 0.00 | 0.00 | 19 | 1016.3 |
| 20260507104550 | 55 | 274 | 0.0 | 4.0 | 0.00 | 0.00 | 0.00 | 20 | 1016.3 |
| 20260507103109 | 54 | 327 | 0.0 | 5.0 | 0.00 | 0.00 | 0.00 | 19 | 1016.3 |
| 20260507101542 | 54 | 323 | 0.0 | 4.0 | 0.00 | 0.00 | 0.00 | 22 | 1016.2 |
| 20260507100057 | 55 | 321 | 2.0 | 9.0 | 0.00 | 0.00 | 0.00 | 19 | 1016.2 |